JNA671 RKSS-RKJY
Flight info
| Callsign | JNA671 |
|---|---|
| Flight time | 0h 42m |
| Altitude | 24000 |
| Route | BULTI2U BULTI Y711 DALSU Y253 TEDAN TEDAN1D |
| Aircraft | B738/M-SDE2FGHIM3RWY/LB1 |
Departure
| Time | 2026-04-25 03:49 |
|---|---|
| Airport | Gimpo International Airport (RKSS) |
Arrival
| Time | 2026-04-25 04:31 |
|---|---|
| Airport | Yeosu Airport (RKJY) |
| Time | Latitude | Longitude | Altitude | Speed | Heading |
|---|---|---|---|---|---|
| 2026-04-25 03:21 | 37.55425 | 126.80353 | 56 ft | 0 kts | 226° |
| 2026-04-25 03:42 | 37.55424 | 126.80352 | 65 ft | 1 kts | 226° |
| 2026-04-25 03:42 | 37.55408 | 126.80332 | 56 ft | 6 kts | 224° |
| 2026-04-25 03:42 | 37.55375 | 126.80274 | 62 ft | 10 kts | 272° |
| 2026-04-25 03:43 | 37.55428 | 126.80188 | 63 ft | 15 kts | 315° |
| 2026-04-25 03:43 | 37.55502 | 126.80095 | 65 ft | 15 kts | 315° |
| 2026-04-25 03:43 | 37.55573 | 126.80006 | 65 ft | 14 kts | 315° |
| 2026-04-25 03:43 | 37.55640 | 126.79921 | 60 ft | 13 kts | 316° |
| 2026-04-25 03:44 | 37.55705 | 126.79839 | 60 ft | 13 kts | 315° |
| 2026-04-25 03:44 | 37.55768 | 126.79760 | 60 ft | 13 kts | 315° |
| 2026-04-25 03:44 | 37.55830 | 126.79683 | 63 ft | 12 kts | 315° |
| 2026-04-25 03:44 | 37.55904 | 126.79590 | 64 ft | 21 kts | 315° |
| 2026-04-25 03:45 | 37.56028 | 126.79433 | 62 ft | 28 kts | 315° |
| 2026-04-25 03:45 | 37.56161 | 126.79265 | 63 ft | 26 kts | 315° |
| 2026-04-25 03:45 | 37.56286 | 126.79108 | 63 ft | 24 kts | 315° |
| 2026-04-25 03:45 | 37.56402 | 126.78962 | 60 ft | 23 kts | 315° |
| 2026-04-25 03:46 | 37.56513 | 126.78822 | 62 ft | 22 kts | 315° |
| 2026-04-25 03:46 | 37.56621 | 126.78687 | 61 ft | 22 kts | 315° |
| 2026-04-25 03:46 | 37.56725 | 126.78554 | 61 ft | 21 kts | 314° |
| 2026-04-25 03:46 | 37.56827 | 126.78426 | 63 ft | 20 kts | 315° |
| 2026-04-25 03:47 | 37.56926 | 126.78302 | 65 ft | 20 kts | 315° |
| 2026-04-25 03:47 | 37.57021 | 126.78181 | 63 ft | 19 kts | 314° |
| 2026-04-25 03:47 | 37.57114 | 126.78066 | 62 ft | 18 kts | 316° |
| 2026-04-25 03:47 | 37.57133 | 126.77933 | 58 ft | 19 kts | 226° |
| 2026-04-25 03:48 | 37.57066 | 126.77852 | 53 ft | 10 kts | 208° |
| 2026-04-25 03:48 | 37.57035 | 126.77869 | 56 ft | 0 kts | 134° |
| 2026-04-25 03:48 | 37.56906 | 126.78032 | 56 ft | 63 kts | 135° |
| 2026-04-25 03:48 | 37.56424 | 126.78638 | 62 ft | 130 kts | 135° |
| 2026-04-25 03:49 | 37.55661 | 126.79598 | 239 ft | 168 kts | 136° |
| 2026-04-25 03:49 | 37.54886 | 126.80593 | 1171 ft | 158 kts | 139° |
| 2026-04-25 03:49 | 37.54091 | 126.81589 | 1819 ft | 166 kts | 138° |
| 2026-04-25 03:49 | 37.53262 | 126.82624 | 2753 ft | 167 kts | 137° |
| 2026-04-25 03:50 | 37.52410 | 126.83665 | 3597 ft | 176 kts | 141° |
| 2026-04-25 03:50 | 37.51440 | 126.84821 | 4059 ft | 210 kts | 137° |
| 2026-04-25 03:50 | 37.50337 | 126.86208 | 4318 ft | 237 kts | 139° |
| 2026-04-25 03:50 | 37.48897 | 126.87243 | 4878 ft | 242 kts | 166° |
| 2026-04-25 03:51 | 37.47250 | 126.87777 | 5519 ft | 248 kts | 165° |
| 2026-04-25 03:51 | 37.45592 | 126.88444 | 5946 ft | 259 kts | 164° |
| 2026-04-25 03:51 | 37.43811 | 126.89144 | 5772 ft | 275 kts | 164° |
| 2026-04-25 03:51 | 37.42023 | 126.89881 | 5956 ft | 271 kts | 164° |
| 2026-04-25 03:52 | 37.40214 | 126.90591 | 6002 ft | 272 kts | 165° |
| 2026-04-25 03:52 | 37.38391 | 126.91300 | 5896 ft | 275 kts | 164° |
| 2026-04-25 03:52 | 37.36629 | 126.92121 | 5842 ft | 272 kts | 150° |
| 2026-04-25 03:52 | 37.35122 | 126.93516 | 6059 ft | 271 kts | 145° |
| 2026-04-25 03:53 | 37.33561 | 126.94900 | 6718 ft | 277 kts | 147° |
| 2026-04-25 03:53 | 37.31963 | 126.96260 | 7569 ft | 278 kts | 147° |
| 2026-04-25 03:53 | 37.30373 | 126.97611 | 7918 ft | 275 kts | 147° |
| 2026-04-25 03:53 | 37.28769 | 126.98982 | 7994 ft | 283 kts | 147° |
| 2026-04-25 03:54 | 37.27149 | 127.00374 | 7998 ft | 281 kts | 147° |
| 2026-04-25 03:54 | 37.25547 | 127.01749 | 7989 ft | 277 kts | 147° |
| 2026-04-25 03:54 | 37.23880 | 127.02905 | 7979 ft | 272 kts | 166° |
| 2026-04-25 03:54 | 37.22645 | 127.03084 | 8005 ft | 271 kts | 183° |
| 2026-04-25 03:55 | 37.20771 | 127.02658 | 8390 ft | 278 kts | 196° |
| 2026-04-25 03:55 | 37.18920 | 127.01940 | 9338 ft | 281 kts | 198° |
| 2026-04-25 03:55 | 37.17067 | 127.01185 | 10331 ft | 283 kts | 198° |
| 2026-04-25 03:55 | 37.15123 | 127.00406 | 10740 ft | 307 kts | 197° |
| 2026-04-25 03:56 | 37.12997 | 126.99577 | 10968 ft | 333 kts | 197° |
| 2026-04-25 03:56 | 37.10730 | 126.98706 | 11571 ft | 344 kts | 197° |
| 2026-04-25 03:56 | 37.08426 | 126.97824 | 12380 ft | 350 kts | 196° |
| 2026-04-25 03:56 | 37.06073 | 126.96927 | 13117 ft | 357 kts | 196° |
| 2026-04-25 03:57 | 37.03679 | 126.96014 | 13974 ft | 361 kts | 196° |
| 2026-04-25 03:57 | 37.01267 | 126.95094 | 14713 ft | 364 kts | 196° |
| 2026-04-25 03:57 | 36.98829 | 126.94165 | 15478 ft | 368 kts | 197° |
| 2026-04-25 03:57 | 36.95569 | 126.92922 | 16443 ft | 373 kts | 197° |
| 2026-04-25 03:58 | 36.93886 | 126.92281 | 16947 ft | 375 kts | 197° |
| 2026-04-25 03:58 | 36.91388 | 126.91275 | 17681 ft | 379 kts | 199° |
| 2026-04-25 03:58 | 36.88899 | 126.90146 | 18381 ft | 383 kts | 201° |
| 2026-04-25 03:58 | 36.86393 | 126.88971 | 19025 ft | 386 kts | 201° |
| 2026-04-25 03:59 | 36.83872 | 126.87792 | 19695 ft | 388 kts | 201° |
| 2026-04-25 03:59 | 36.81334 | 126.86617 | 20350 ft | 391 kts | 200° |
| 2026-04-25 03:59 | 36.78773 | 126.85444 | 20981 ft | 393 kts | 200° |
| 2026-04-25 03:59 | 36.76194 | 126.84270 | 21601 ft | 396 kts | 200° |
| 2026-04-25 04:00 | 36.73596 | 126.83095 | 22216 ft | 398 kts | 199° |
| 2026-04-25 04:00 | 36.70875 | 126.82416 | 22797 ft | 402 kts | 181° |
| 2026-04-25 04:00 | 36.68113 | 126.82557 | 23400 ft | 404 kts | 178° |
| 2026-04-25 04:00 | 36.65299 | 126.82720 | 23927 ft | 406 kts | 178° |
| 2026-04-25 04:01 | 36.62458 | 126.82853 | 24103 ft | 410 kts | 179° |
| 2026-04-25 04:01 | 36.59610 | 126.82962 | 24130 ft | 409 kts | 179° |
| 2026-04-25 04:01 | 36.56763 | 126.83063 | 24125 ft | 409 kts | 179° |
| 2026-04-25 04:01 | 36.53908 | 126.83164 | 24120 ft | 411 kts | 179° |
| 2026-04-25 04:02 | 36.51050 | 126.83280 | 24145 ft | 412 kts | 178° |
| 2026-04-25 04:02 | 36.48176 | 126.83401 | 24142 ft | 413 kts | 178° |
| 2026-04-25 04:02 | 36.45298 | 126.83523 | 24138 ft | 414 kts | 178° |
| 2026-04-25 04:02 | 36.42428 | 126.83643 | 24146 ft | 413 kts | 178° |
| 2026-04-25 04:03 | 36.39554 | 126.83760 | 24130 ft | 412 kts | 179° |
| 2026-04-25 04:03 | 36.36699 | 126.83710 | 24142 ft | 411 kts | 184° |
| 2026-04-25 04:03 | 36.33840 | 126.83400 | 24130 ft | 411 kts | 186° |
| 2026-04-25 04:03 | 36.31002 | 126.83038 | 24141 ft | 410 kts | 186° |
| 2026-04-25 04:04 | 36.28162 | 126.82679 | 24152 ft | 410 kts | 186° |
| 2026-04-25 04:04 | 36.25327 | 126.82338 | 24151 ft | 410 kts | 185° |
| 2026-04-25 04:04 | 36.22484 | 126.82014 | 24147 ft | 410 kts | 185° |
| 2026-04-25 04:04 | 36.19636 | 126.81698 | 24150 ft | 411 kts | 185° |
| 2026-04-25 04:05 | 36.16790 | 126.81385 | 24151 ft | 411 kts | 185° |
| 2026-04-25 04:05 | 36.13937 | 126.81071 | 24152 ft | 411 kts | 185° |
| 2026-04-25 04:05 | 36.11082 | 126.80760 | 24158 ft | 412 kts | 185° |
| 2026-04-25 04:05 | 36.08227 | 126.80450 | 24157 ft | 412 kts | 185° |
| 2026-04-25 04:06 | 36.05364 | 126.80138 | 24156 ft | 413 kts | 185° |
| 2026-04-25 04:06 | 36.02503 | 126.79826 | 24155 ft | 413 kts | 185° |
| 2026-04-25 04:06 | 35.99638 | 126.79515 | 24158 ft | 413 kts | 185° |
| 2026-04-25 04:06 | 35.96813 | 126.79208 | 24163 ft | 413 kts | 186° |
| 2026-04-25 04:07 | 35.93955 | 126.78898 | 24153 ft | 412 kts | 186° |
| 2026-04-25 04:07 | 35.91101 | 126.78587 | 24152 ft | 411 kts | 186° |
| 2026-04-25 04:07 | 35.88249 | 126.78278 | 24139 ft | 411 kts | 186° |
| 2026-04-25 04:07 | 35.85408 | 126.77971 | 24154 ft | 410 kts | 186° |
| 2026-04-25 04:08 | 35.82568 | 126.77665 | 24158 ft | 409 kts | 186° |
| 2026-04-25 04:08 | 35.79728 | 126.77360 | 24158 ft | 409 kts | 186° |
| 2026-04-25 04:08 | 35.76895 | 126.77055 | 24149 ft | 409 kts | 186° |
| 2026-04-25 04:08 | 35.74062 | 126.76750 | 24158 ft | 409 kts | 186° |
| 2026-04-25 04:09 | 35.71225 | 126.76445 | 24158 ft | 409 kts | 186° |
| 2026-04-25 04:09 | 35.68411 | 126.76143 | 24037 ft | 401 kts | 186° |
| 2026-04-25 04:09 | 35.65652 | 126.75847 | 23557 ft | 396 kts | 186° |
| 2026-04-25 04:09 | 35.62876 | 126.75548 | 23188 ft | 410 kts | 186° |
| 2026-04-25 04:10 | 35.59983 | 126.75236 | 22789 ft | 422 kts | 186° |
| 2026-04-25 04:10 | 35.57055 | 126.74923 | 22383 ft | 421 kts | 186° |
| 2026-04-25 04:10 | 35.54148 | 126.74610 | 21992 ft | 418 kts | 186° |
| 2026-04-25 04:10 | 35.51255 | 126.74301 | 21601 ft | 416 kts | 186° |
| 2026-04-25 04:11 | 35.45522 | 126.73692 | 20834 ft | 412 kts | 186° |
| 2026-04-25 04:11 | 35.42703 | 126.73393 | 20453 ft | 402 kts | 185° |
| 2026-04-25 04:11 | 35.39944 | 126.73102 | 20078 ft | 394 kts | 185° |
| 2026-04-25 04:12 | 35.37238 | 126.72816 | 19704 ft | 387 kts | 186° |
| 2026-04-25 04:12 | 35.34578 | 126.72534 | 19347 ft | 381 kts | 185° |
| 2026-04-25 04:12 | 35.31944 | 126.72370 | 19179 ft | 379 kts | 176° |
| 2026-04-25 04:12 | 35.29417 | 126.73307 | 19160 ft | 385 kts | 152° |
| 2026-04-25 04:13 | 35.27309 | 126.75367 | 19140 ft | 393 kts | 134° |
| 2026-04-25 04:13 | 35.25721 | 126.78099 | 19148 ft | 397 kts | 117° |
| 2026-04-25 04:13 | 35.24783 | 126.81236 | 19146 ft | 399 kts | 109° |
| 2026-04-25 04:13 | 35.24011 | 126.84494 | 19145 ft | 400 kts | 107° |
| 2026-04-25 04:14 | 35.23275 | 126.87766 | 18969 ft | 395 kts | 107° |
| 2026-04-25 04:14 | 35.22550 | 126.90984 | 18556 ft | 390 kts | 107° |
| 2026-04-25 04:14 | 35.21824 | 126.94157 | 18050 ft | 385 kts | 107° |
| 2026-04-25 04:14 | 35.21094 | 126.97286 | 17544 ft | 380 kts | 108° |
| 2026-04-25 04:15 | 35.20365 | 127.00365 | 17073 ft | 375 kts | 108° |
| 2026-04-25 04:15 | 35.19640 | 127.03406 | 16603 ft | 370 kts | 108° |
| 2026-04-25 04:15 | 35.18921 | 127.06407 | 16159 ft | 365 kts | 108° |
| 2026-04-25 04:15 | 35.18210 | 127.09370 | 15712 ft | 361 kts | 107° |
| 2026-04-25 04:16 | 35.17507 | 127.12298 | 15256 ft | 357 kts | 107° |
| 2026-04-25 04:16 | 35.16810 | 127.15194 | 14812 ft | 353 kts | 107° |
| 2026-04-25 04:16 | 35.16120 | 127.18061 | 14385 ft | 349 kts | 107° |
| 2026-04-25 04:16 | 35.15437 | 127.20896 | 13850 ft | 349 kts | 107° |
| 2026-04-25 04:17 | 35.14751 | 127.23743 | 13296 ft | 348 kts | 107° |
| 2026-04-25 04:17 | 35.14069 | 127.26563 | 12815 ft | 344 kts | 107° |
| 2026-04-25 04:17 | 35.13288 | 127.29304 | 12360 ft | 339 kts | 118° |
| 2026-04-25 04:17 | 35.11816 | 127.31508 | 11964 ft | 334 kts | 139° |
| 2026-04-25 04:18 | 35.09885 | 127.33034 | 11517 ft | 331 kts | 154° |
| 2026-04-25 04:18 | 35.07779 | 127.34130 | 11111 ft | 328 kts | 156° |
| 2026-04-25 04:18 | 35.05674 | 127.35177 | 10678 ft | 325 kts | 156° |
| 2026-04-25 04:18 | 35.03604 | 127.36208 | 10480 ft | 315 kts | 156° |
| 2026-04-25 04:19 | 35.01612 | 127.37210 | 10344 ft | 304 kts | 156° |
| 2026-04-25 04:19 | 34.99686 | 127.38184 | 10174 ft | 295 kts | 156° |
| 2026-04-25 04:19 | 34.97831 | 127.39128 | 10064 ft | 283 kts | 155° |
| 2026-04-25 04:19 | 34.96054 | 127.40043 | 9922 ft | 274 kts | 155° |
| 2026-04-25 04:20 | 34.94298 | 127.40941 | 9620 ft | 273 kts | 155° |
| 2026-04-25 04:20 | 34.92549 | 127.41834 | 9321 ft | 272 kts | 155° |
| 2026-04-25 04:20 | 34.90808 | 127.42723 | 9039 ft | 270 kts | 155° |
| 2026-04-25 04:20 | 34.89105 | 127.43592 | 8917 ft | 262 kts | 154° |
| 2026-04-25 04:21 | 34.87436 | 127.44440 | 8760 ft | 256 kts | 154° |
| 2026-04-25 04:21 | 34.85809 | 127.45267 | 8676 ft | 252 kts | 154° |
| 2026-04-25 04:21 | 34.84191 | 127.46088 | 8552 ft | 252 kts | 154° |
| 2026-04-25 04:21 | 34.82569 | 127.46913 | 8463 ft | 252 kts | 154° |
| 2026-04-25 04:22 | 34.80943 | 127.47742 | 8374 ft | 255 kts | 154° |
| 2026-04-25 04:22 | 34.79292 | 127.48582 | 8274 ft | 258 kts | 154° |
| 2026-04-25 04:22 | 34.77640 | 127.49419 | 8160 ft | 257 kts | 154° |
| 2026-04-25 04:22 | 34.75992 | 127.50254 | 8060 ft | 256 kts | 154° |
| 2026-04-25 04:23 | 34.74352 | 127.51085 | 7917 ft | 257 kts | 153° |
| 2026-04-25 04:23 | 34.72672 | 127.51939 | 7559 ft | 265 kts | 153° |
| 2026-04-25 04:23 | 34.70969 | 127.52803 | 7210 ft | 266 kts | 153° |
| 2026-04-25 04:23 | 34.69261 | 127.53669 | 6857 ft | 266 kts | 153° |
| 2026-04-25 04:24 | 34.67550 | 127.54536 | 6492 ft | 267 kts | 153° |
| 2026-04-25 04:24 | 34.65831 | 127.55408 | 6110 ft | 268 kts | 153° |
| 2026-04-25 04:24 | 34.64128 | 127.56271 | 5719 ft | 262 kts | 153° |
| 2026-04-25 04:24 | 34.62508 | 127.57178 | 5361 ft | 251 kts | 142° |
| 2026-04-25 04:25 | 34.61402 | 127.58694 | 5044 ft | 234 kts | 113° |
| 2026-04-25 04:25 | 34.60961 | 127.60515 | 4877 ft | 222 kts | 96° |
| 2026-04-25 04:25 | 34.61005 | 127.62357 | 4696 ft | 217 kts | 78° |
| 2026-04-25 04:25 | 34.61525 | 127.64070 | 4590 ft | 217 kts | 69° |
| 2026-04-25 04:26 | 34.62119 | 127.65762 | 4371 ft | 217 kts | 70° |
| 2026-04-25 04:26 | 34.62688 | 127.67425 | 4236 ft | 208 kts | 69° |
| 2026-04-25 04:26 | 34.63228 | 127.68977 | 4114 ft | 192 kts | 65° |
| 2026-04-25 04:26 | 34.64118 | 127.70082 | 3982 ft | 182 kts | 31° |
| 2026-04-25 04:27 | 34.65363 | 127.70521 | 3966 ft | 193 kts | 11° |
| 2026-04-25 04:27 | 34.66735 | 127.70274 | 3649 ft | 207 kts | 346° |
| 2026-04-25 04:27 | 34.68086 | 127.69622 | 3266 ft | 208 kts | 345° |
| 2026-04-25 04:27 | 34.69423 | 127.68986 | 2966 ft | 204 kts | 345° |
| 2026-04-25 04:28 | 34.70722 | 127.68354 | 2706 ft | 196 kts | 345° |
| 2026-04-25 04:28 | 34.71930 | 127.67758 | 2440 ft | 179 kts | 345° |
| 2026-04-25 04:28 | 34.73039 | 127.67213 | 2205 ft | 166 kts | 345° |
| 2026-04-25 04:28 | 34.74077 | 127.66705 | 1998 ft | 158 kts | 345° |
| 2026-04-25 04:29 | 34.75075 | 127.66217 | 1807 ft | 156 kts | 345° |
| 2026-04-25 04:29 | 34.76075 | 127.65727 | 1611 ft | 156 kts | 343° |
| 2026-04-25 04:29 | 34.77068 | 127.65238 | 1395 ft | 154 kts | 343° |
| 2026-04-25 04:29 | 34.78059 | 127.64751 | 1175 ft | 148 kts | 343° |
| 2026-04-25 04:30 | 34.79006 | 127.64287 | 975 ft | 149 kts | 343° |
| 2026-04-25 04:30 | 34.79958 | 127.63799 | 800 ft | 152 kts | 342° |
| 2026-04-25 04:30 | 34.80963 | 127.63328 | 586 ft | 155 kts | 342° |
| 2026-04-25 04:30 | 34.81960 | 127.62836 | 381 ft | 155 kts | 342° |
| 2026-04-25 04:31 | 34.82952 | 127.62344 | 171 ft | 153 kts | 343° |
| 2026-04-25 04:31 | 34.83908 | 127.61880 | 82 ft | 137 kts | 343° |
| 2026-04-25 04:31 | 34.84626 | 127.61536 | 86 ft | 80 kts | 340° |
| 2026-04-25 04:31 | 34.84945 | 127.61379 | 55 ft | 20 kts | 337° |
| 2026-04-25 04:32 | 34.85053 | 127.61333 | 45 ft | 10 kts | 359° |
| 2026-04-25 04:32 | 34.85087 | 127.61285 | 40 ft | 9 kts | 223° |
| 2026-04-25 04:32 | 34.85033 | 127.61303 | 46 ft | 9 kts | 121° |
| 2026-04-25 04:32 | 34.84991 | 127.61352 | 51 ft | 8 kts | 154° |
| 2026-04-25 04:33 | 34.84937 | 127.61380 | 57 ft | 9 kts | 158° |
| 2026-04-25 04:33 | 34.84871 | 127.61412 | 61 ft | 11 kts | 158° |
| 2026-04-25 04:33 | 34.84791 | 127.61451 | 65 ft | 14 kts | 158° |
| 2026-04-25 04:33 | 34.84697 | 127.61498 | 82 ft | 15 kts | 159° |
| 2026-04-25 04:34 | 34.84599 | 127.61517 | 86 ft | 15 kts | 214° |
| 2026-04-25 04:34 | 34.84556 | 127.61409 | 86 ft | 14 kts | 248° |
| 2026-04-25 04:34 | 34.84501 | 127.61344 | 89 ft | 12 kts | 180° |
| 2026-04-25 04:34 | 34.84426 | 127.61376 | 91 ft | 11 kts | 157° |
| 2026-04-25 04:35 | 34.84353 | 127.61412 | 95 ft | 11 kts | 158° |
| 2026-04-25 04:35 | 34.84283 | 127.61446 | 99 ft | 11 kts | 158° |
| 2026-04-25 04:35 | 34.84214 | 127.61480 | 96 ft | 10 kts | 158° |
| 2026-04-25 04:35 | 34.84152 | 127.61511 | 96 ft | 8 kts | 158° |
| 2026-04-25 04:36 | 34.84096 | 127.61539 | 93 ft | 9 kts | 159° |
| 2026-04-25 04:36 | 34.84051 | 127.61541 | 93 ft | 7 kts | 232° |
| 2026-04-25 04:36 | 34.84068 | 127.61487 | 93 ft | 7 kts | 295° |
| 2026-04-25 04:36 | 34.84080 | 127.61450 | 94 ft | 0 kts | 291° |